createdAt,value
2023-10-20T00:01:33.268Z,7.10
2023-10-20T00:04:04.111Z,7.12
2023-10-20T00:06:33.994Z,7.15
2023-10-20T00:09:04.199Z,7.16
2023-10-20T00:11:32.838Z,7.17
2023-10-20T00:14:01.719Z,7.18
2023-10-20T00:16:30.790Z,7.20
2023-10-20T00:19:01.851Z,7.21
2023-10-20T00:21:30.838Z,7.22
2023-10-20T00:23:59.972Z,7.24
2023-10-20T00:26:28.723Z,7.26
2023-10-20T00:28:58.109Z,7.26
2023-10-20T00:31:26.906Z,7.29
2023-10-20T00:33:56.385Z,7.32
2023-10-20T00:36:25.092Z,7.33
2023-10-20T00:38:53.931Z,7.35
2023-10-20T00:41:22.551Z,7.37
2023-10-20T00:43:51.461Z,7.38
2023-10-20T00:46:23.320Z,7.39
2023-10-20T00:48:52.280Z,7.40
2023-10-20T00:51:21.315Z,7.40
2023-10-20T00:53:49.879Z,7.41
2023-10-20T00:56:19.498Z,7.41
2023-10-20T00:58:48.898Z,7.42
2023-10-20T01:01:17.952Z,7.42
2023-10-20T01:03:46.968Z,7.41
2023-10-20T01:06:15.990Z,7.38
2023-10-20T01:08:44.618Z,7.37
2023-10-20T01:11:13.792Z,7.38
2023-10-20T01:13:42.550Z,7.39
2023-10-20T01:16:14.167Z,7.37
2023-10-20T01:18:43.015Z,7.37
2023-10-20T01:21:12.196Z,7.35
2023-10-20T01:23:41.033Z,7.36
2023-10-20T01:26:09.942Z,7.37
2023-10-20T01:28:39.265Z,7.37
2023-10-20T01:31:08.287Z,7.37
2023-10-20T01:33:37.152Z,7.39
2023-10-20T01:36:06.303Z,7.39
2023-10-20T01:38:35.039Z,7.40
2023-10-20T01:41:03.597Z,7.41
2023-10-20T01:43:32.582Z,7.40
2023-10-20T01:46:02.319Z,7.40
2023-10-20T01:48:31.634Z,7.43
2023-10-20T01:51:01.563Z,7.48
2023-10-20T01:53:31.005Z,7.48
2023-10-20T01:55:59.741Z,7.48
2023-10-20T01:58:28.868Z,7.45
2023-10-20T02:00:58.168Z,7.45
2023-10-20T02:03:27.021Z,7.43
2023-10-20T02:05:56.006Z,7.40
2023-10-20T02:08:28.804Z,7.40
2023-10-20T02:10:58.518Z,7.38
2023-10-20T02:13:27.728Z,7.39
2023-10-20T02:15:56.515Z,7.40
2023-10-20T02:18:25.897Z,7.40
2023-10-20T02:21:04.231Z,7.39
2023-10-20T02:23:32.289Z,7.39
2023-10-20T02:26:06.559Z,7.39
2023-10-20T02:28:36.623Z,7.41
2023-10-20T02:31:13.877Z,7.44
2023-10-20T02:33:45.154Z,7.46
2023-10-20T02:36:18.343Z,7.45
2023-10-20T02:38:48.261Z,7.44
2023-10-20T02:41:17.256Z,7.43
2023-10-20T02:43:46.276Z,7.42
2023-10-20T02:46:16.567Z,7.40
2023-10-20T02:48:45.404Z,7.40
2023-10-20T02:51:15.452Z,7.41
2023-10-20T02:53:48.545Z,7.40
2023-10-20T02:56:18.438Z,7.41
2023-10-20T02:58:47.901Z,7.43
2023-10-20T03:01:19.529Z,7.46
2023-10-20T03:03:48.649Z,7.49
2023-10-20T03:06:17.663Z,7.47
2023-10-20T03:08:46.336Z,7.45
2023-10-20T03:11:15.436Z,7.46
2023-10-20T03:13:44.653Z,7.49
2023-10-20T03:16:13.478Z,7.49
2023-10-20T03:18:42.460Z,7.47
2023-10-20T03:21:11.966Z,7.45
2023-10-20T03:23:44.588Z,7.43
2023-10-20T03:26:14.461Z,7.42
2023-10-20T03:28:44.494Z,7.41
2023-10-20T03:31:13.630Z,7.41
2023-10-20T03:33:42.629Z,7.41
2023-10-20T03:36:12.834Z,7.42
2023-10-20T03:38:43.337Z,7.40
2023-10-20T03:41:12.627Z,7.39
2023-10-20T03:43:42.527Z,7.37
2023-10-20T03:46:16.700Z,7.34
2023-10-20T03:48:46.172Z,7.33
2023-10-20T03:51:17.635Z,7.32
2023-10-20T03:53:51.289Z,7.30
2023-10-20T03:56:22.852Z,7.30
2023-10-20T03:58:51.873Z,7.29
2023-10-20T04:01:21.759Z,7.27
2023-10-20T04:03:51.826Z,7.28
2023-10-20T04:06:21.174Z,7.27
2023-10-20T04:08:50.435Z,7.26
2023-10-20T04:11:19.185Z,7.25
2023-10-20T04:13:48.872Z,7.24
2023-10-20T04:16:19.321Z,7.25
2023-10-20T04:18:49.266Z,7.27
2023-10-20T04:21:18.482Z,7.26
2023-10-20T04:23:48.056Z,7.26
2023-10-20T04:26:19.797Z,7.27
2023-10-20T04:29:03.277Z,7.26
2023-10-20T04:31:50.785Z,7.25
2023-10-20T04:34:39.928Z,7.25
2023-10-20T04:37:29.590Z,7.26
2023-10-20T04:40:17.355Z,7.25
2023-10-20T04:43:07.065Z,7.26
2023-10-20T04:45:51.210Z,7.25
2023-10-20T04:48:40.126Z,7.26
2023-10-20T04:51:19.413Z,7.24
2023-10-20T04:53:54.114Z,7.22
2023-10-20T04:56:42.777Z,7.22
2023-10-20T04:59:20.862Z,7.19
2023-10-20T05:01:50.655Z,7.17
2023-10-20T05:04:24.503Z,7.18
2023-10-20T05:07:05.818Z,7.17
2023-10-20T05:09:41.501Z,7.18
2023-10-20T05:12:11.026Z,7.19
2023-10-20T05:14:39.807Z,7.17
2023-10-20T05:17:11.428Z,7.16
2023-10-20T05:19:40.295Z,7.16
2023-10-20T05:22:10.506Z,7.14
2023-10-20T05:24:40.228Z,7.14
2023-10-20T05:27:08.816Z,7.13
2023-10-20T05:29:39.429Z,7.12
2023-10-20T05:32:08.894Z,7.16
2023-10-20T05:34:37.877Z,7.18
2023-10-20T05:37:06.702Z,7.18
2023-10-20T05:39:35.395Z,7.14
2023-10-20T05:42:05.285Z,7.11
2023-10-20T05:44:34.411Z,7.10
2023-10-20T05:47:04.839Z,7.07
2023-10-20T05:49:33.945Z,7.03
2023-10-20T05:52:02.839Z,7.02
2023-10-20T05:54:32.395Z,7.04
2023-10-20T05:57:01.606Z,7.07
2023-10-20T05:59:30.701Z,7.09
2023-10-20T06:02:00.014Z,7.06
2023-10-20T06:04:28.989Z,7.06
2023-10-20T06:06:57.785Z,7.03
2023-10-20T06:09:28.544Z,7.00
2023-10-20T06:11:57.479Z,6.95
2023-10-20T06:14:27.608Z,6.94
2023-10-20T06:16:56.273Z,6.93
2023-10-20T06:19:25.329Z,6.91
2023-10-20T06:21:54.239Z,6.90
2023-10-20T06:24:23.498Z,6.88
2023-10-20T06:26:52.499Z,6.86
2023-10-20T06:29:27.605Z,6.85
2023-10-20T06:32:10.127Z,6.84
2023-10-20T06:34:42.080Z,6.82
2023-10-20T06:37:14.615Z,6.82
2023-10-20T06:39:43.715Z,6.84
2023-10-20T06:42:14.190Z,6.88
2023-10-20T06:44:42.988Z,6.89
2023-10-20T06:47:12.410Z,6.87
2023-10-20T06:49:44.592Z,6.85
2023-10-20T06:52:18.197Z,6.85
2023-10-20T06:55:15.299Z,6.81
2023-10-20T06:57:40.031Z,6.76
2023-10-20T07:00:17.560Z,6.72
2023-10-20T07:02:47.366Z,6.70
2023-10-20T07:05:18.042Z,6.65
2023-10-20T07:07:47.082Z,6.63
2023-10-20T07:10:18.519Z,6.63
2023-10-20T07:12:47.362Z,6.60
2023-10-20T07:15:17.223Z,6.57
2023-10-20T07:17:46.197Z,6.58
2023-10-20T07:20:15.583Z,6.61
2023-10-20T07:22:44.315Z,6.59
2023-10-20T07:25:15.691Z,6.59
2023-10-20T07:27:44.541Z,6.57
2023-10-20T07:30:14.708Z,6.57
2023-10-20T07:32:43.839Z,6.57
2023-10-20T07:35:15.861Z,6.62
2023-10-20T07:37:45.321Z,6.62
2023-10-20T07:40:14.737Z,6.62
2023-10-20T07:42:47.376Z,6.64
2023-10-20T07:45:18.780Z,6.68
2023-10-20T07:47:47.915Z,6.72
2023-10-20T07:50:18.454Z,6.75
2023-10-20T07:52:47.232Z,6.78
2023-10-20T07:55:16.236Z,6.79
2023-10-20T07:57:44.914Z,6.79
2023-10-20T08:00:15.672Z,6.79
2023-10-20T08:02:44.813Z,6.75
2023-10-20T08:05:15.200Z,6.73
2023-10-20T08:07:44.581Z,6.71
2023-10-20T08:10:13.667Z,6.73
2023-10-20T08:12:42.428Z,6.77
2023-10-20T08:15:14.046Z,6.76
2023-10-20T08:17:45.191Z,6.75
2023-10-20T08:20:14.852Z,6.76
2023-10-20T08:22:44.414Z,6.77
2023-10-20T08:25:14.329Z,6.80
2023-10-20T08:27:43.090Z,6.84
2023-10-20T08:30:14.670Z,6.86
2023-10-20T08:32:43.520Z,6.86
2023-10-20T08:35:14.970Z,6.87
2023-10-20T08:37:43.618Z,6.84
2023-10-20T08:40:13.702Z,6.80
2023-10-20T08:42:43.234Z,6.79
2023-10-20T08:45:14.165Z,6.75
2023-10-20T08:47:43.544Z,6.73
2023-10-20T08:50:17.334Z,6.75
2023-10-20T08:52:46.617Z,6.77
2023-10-20T08:55:15.737Z,6.78
2023-10-20T08:57:45.644Z,6.77
2023-10-20T09:00:21.496Z,6.76
2023-10-20T09:02:50.635Z,6.80
2023-10-20T09:05:23.222Z,6.85
2023-10-20T09:07:56.785Z,6.88
2023-10-20T09:10:25.945Z,6.92
2023-10-20T09:12:55.445Z,6.89
2023-10-20T09:15:24.425Z,6.88
2023-10-20T09:17:56.623Z,6.89
2023-10-20T09:20:25.618Z,6.91
2023-10-20T09:22:54.563Z,6.92
2023-10-20T09:25:23.368Z,6.92
2023-10-20T09:27:52.330Z,6.92
2023-10-20T09:30:22.579Z,6.94
2023-10-20T09:32:52.283Z,6.96
2023-10-20T09:35:21.299Z,6.97
2023-10-20T09:37:55.037Z,6.98
2023-10-20T09:40:25.566Z,6.99
2023-10-20T09:43:25.077Z,7.01
2023-10-20T09:46:05.033Z,7.07
2023-10-20T09:48:39.181Z,7.14
2023-10-20T09:51:09.234Z,7.19
2023-10-20T09:53:39.558Z,7.22
2023-10-20T09:56:09.911Z,7.24
2023-10-20T09:58:40.217Z,7.27
2023-10-20T10:01:13.528Z,7.27
2023-10-20T10:03:48.854Z,7.25
2023-10-20T10:06:18.038Z,7.22
2023-10-20T10:08:48.895Z,7.24
2023-10-20T10:11:27.221Z,7.26
2023-10-20T10:13:58.839Z,7.29
2023-10-20T10:16:28.695Z,7.32
2023-10-20T10:19:08.175Z,7.29
2023-10-20T10:21:40.562Z,7.26
2023-10-20T10:24:17.957Z,7.25
2023-10-20T10:26:53.251Z,7.23
2023-10-20T10:29:42.806Z,7.22
2023-10-20T10:32:14.558Z,7.26
2023-10-20T10:34:45.488Z,7.26
2023-10-20T10:37:16.010Z,7.25
2023-10-20T10:39:44.843Z,7.26
2023-10-20T10:42:13.828Z,7.24
2023-10-20T10:44:42.693Z,7.19
2023-10-20T10:47:21.085Z,7.17
2023-10-20T10:49:50.677Z,7.17
2023-10-20T10:52:19.523Z,7.17
2023-10-20T10:54:50.590Z,7.17
2023-10-20T10:57:19.927Z,7.14
2023-10-20T10:59:49.110Z,7.09
2023-10-20T11:02:18.848Z,7.02
2023-10-20T11:04:48.736Z,7.01
2023-10-20T11:07:17.786Z,7.01
2023-10-20T11:09:52.614Z,7.02
2023-10-20T11:12:22.717Z,7.04
2023-10-20T11:14:51.532Z,7.04
2023-10-20T11:17:21.579Z,7.02
2023-10-20T11:19:51.221Z,6.99
2023-10-20T11:22:19.959Z,7.00
2023-10-20T11:24:55.608Z,6.98
2023-10-20T11:27:24.338Z,6.96
2023-10-20T11:29:59.149Z,6.95
2023-10-20T11:32:28.410Z,6.96
2023-10-20T11:34:57.370Z,6.95
2023-10-20T11:37:26.177Z,6.94
2023-10-20T11:39:55.822Z,6.93
2023-10-20T11:42:24.448Z,6.92
2023-10-20T11:44:53.406Z,6.90
2023-10-20T11:47:22.993Z,6.91
2023-10-20T11:49:55.334Z,6.93
2023-10-20T11:52:24.967Z,6.95
2023-10-20T11:54:54.890Z,6.96
2023-10-20T11:57:23.569Z,6.95
2023-10-20T11:59:52.631Z,6.94
2023-10-20T12:02:23.688Z,6.93
2023-10-20T12:04:53.303Z,6.89
2023-10-20T12:07:22.845Z,6.87
2023-10-20T12:09:54.587Z,6.86
2023-10-20T12:12:23.576Z,6.84
2023-10-20T12:25:27.455Z,6.78
2023-10-20T12:27:56.135Z,6.75
2023-10-20T12:30:27.715Z,6.73
2023-10-20T12:32:56.725Z,6.73
2023-10-20T12:35:26.045Z,6.75
2023-10-20T12:37:55.707Z,6.75
2023-10-20T12:40:25.815Z,6.71
2023-10-20T12:42:54.601Z,6.69
2023-10-20T12:45:24.127Z,6.67
2023-10-20T12:47:56.325Z,6.63
2023-10-20T12:50:28.169Z,6.59
2023-10-20T12:52:57.902Z,6.56
2023-10-20T12:55:27.397Z,6.54
2023-10-20T12:57:57.266Z,6.47
2023-10-20T13:00:26.452Z,6.45
2023-10-20T13:02:55.589Z,6.48
2023-10-20T13:05:24.506Z,6.51
2023-10-20T13:07:54.011Z,6.53
2023-10-20T13:10:22.756Z,6.53
2023-10-20T13:12:51.445Z,6.54
2023-10-20T13:15:20.453Z,6.52
2023-10-20T13:17:49.371Z,6.49
2023-10-20T13:20:18.775Z,6.48
2023-10-20T13:22:50.704Z,6.45
2023-10-20T13:25:21.222Z,6.42
2023-10-20T13:27:50.237Z,6.36
2023-10-20T13:30:19.161Z,6.35
2023-10-20T13:32:48.045Z,6.34
2023-10-20T13:35:17.380Z,6.33
2023-10-20T13:37:46.185Z,6.33
2023-10-20T13:40:15.008Z,6.30
2023-10-20T13:42:44.222Z,6.26
2023-10-20T13:45:13.622Z,6.24
2023-10-20T13:47:42.664Z,6.24
2023-10-20T13:50:14.352Z,6.25
2023-10-20T13:52:43.285Z,6.25
2023-10-20T13:55:14.007Z,6.22
2023-10-20T13:57:43.150Z,6.21
2023-10-20T14:00:15.026Z,6.22
2023-10-20T14:02:44.289Z,6.21
2023-10-20T14:05:19.753Z,6.17
2023-10-20T14:07:49.884Z,6.13
2023-10-20T14:10:19.535Z,6.11
2023-10-20T14:12:49.525Z,6.06
2023-10-20T14:15:18.727Z,6.04
2023-10-20T14:17:48.051Z,6.03
2023-10-20T14:20:18.066Z,6.00
2023-10-20T14:22:49.302Z,6.00
2023-10-20T14:25:18.407Z,5.97
2023-10-20T14:27:47.439Z,5.94
2023-10-20T14:30:16.302Z,5.94
2023-10-20T14:32:45.131Z,5.94
2023-10-20T14:35:15.877Z,5.93
2023-10-20T14:37:44.930Z,5.90
2023-10-20T14:40:14.246Z,5.89
2023-10-20T14:42:43.354Z,5.88
2023-10-20T14:45:13.132Z,5.87
2023-10-20T14:47:42.136Z,5.86
2023-10-20T14:50:11.995Z,5.84
2023-10-20T14:52:41.041Z,5.83
2023-10-20T14:55:10.546Z,5.79
2023-10-20T14:57:40.914Z,5.80
2023-10-20T15:00:12.715Z,5.79
2023-10-20T15:02:42.115Z,5.77
2023-10-20T15:05:11.804Z,5.80
2023-10-20T15:07:41.112Z,5.81
2023-10-20T15:10:11.645Z,5.83
2023-10-20T15:12:43.445Z,5.86
2023-10-20T15:15:15.450Z,5.86
2023-10-20T15:17:44.293Z,5.88
2023-10-20T15:20:16.865Z,5.85
2023-10-20T15:22:46.854Z,5.83
2023-10-20T15:25:15.928Z,5.83
2023-10-20T15:27:44.885Z,5.83
2023-10-20T15:30:16.057Z,5.83
2023-10-20T15:32:46.565Z,5.82
2023-10-20T15:35:16.593Z,5.80
2023-10-20T15:37:45.344Z,5.77
2023-10-20T15:40:18.665Z,5.79
2023-10-20T15:42:48.738Z,5.82
2023-10-20T15:45:19.711Z,5.83
2023-10-20T15:47:49.991Z,5.79
2023-10-20T15:50:18.993Z,5.76
2023-10-20T15:52:50.325Z,5.73
2023-10-20T15:55:19.934Z,5.73
2023-10-20T15:57:49.127Z,5.73
2023-10-20T16:00:18.817Z,5.74
2023-10-20T16:02:47.656Z,5.75
2023-10-20T16:05:16.604Z,5.74
2023-10-20T16:07:45.494Z,5.75
2023-10-20T16:10:14.227Z,5.75
2023-10-20T16:12:42.890Z,5.73
2023-10-20T16:15:13.378Z,5.73
2023-10-20T16:17:42.360Z,5.73
2023-10-20T16:20:13.799Z,5.71
2023-10-20T16:22:42.476Z,5.70
2023-10-20T16:25:11.465Z,5.70
2023-10-20T16:27:40.727Z,5.70
2023-10-20T16:30:16.026Z,5.72
2023-10-20T16:32:45.148Z,5.74
2023-10-20T16:35:14.656Z,5.75
2023-10-20T16:37:43.685Z,5.77
2023-10-20T16:40:14.642Z,5.78
2023-10-20T16:42:43.892Z,5.78
2023-10-20T16:45:13.372Z,5.78
2023-10-20T16:47:42.154Z,5.78
2023-10-20T16:50:11.108Z,5.79
2023-10-20T16:52:40.653Z,5.79
2023-10-20T16:55:10.716Z,5.78
2023-10-20T16:57:39.883Z,5.79
2023-10-20T17:00:10.451Z,5.79
2023-10-20T17:02:39.421Z,5.77
2023-10-20T17:05:09.247Z,5.78
2023-10-20T17:07:37.992Z,5.79
2023-10-20T17:10:09.103Z,5.81
2023-10-20T17:12:37.873Z,5.83
2023-10-20T17:15:08.112Z,5.84
2023-10-20T17:17:37.055Z,5.86
2023-10-20T17:20:07.337Z,5.84
2023-10-20T17:22:36.034Z,5.82
2023-10-20T17:25:06.090Z,5.80
2023-10-20T17:27:35.045Z,5.79
2023-10-20T17:30:05.424Z,5.82
2023-10-20T17:32:34.217Z,5.83
2023-10-20T17:35:03.377Z,5.84
2023-10-20T17:37:32.403Z,5.86
2023-10-20T17:40:04.423Z,5.87
2023-10-20T17:42:34.155Z,5.89
2023-10-20T17:45:03.157Z,5.89
2023-10-20T17:47:32.681Z,5.91
2023-10-20T17:50:01.479Z,5.94
2023-10-20T17:52:30.033Z,5.95
2023-10-20T17:54:58.747Z,5.97
2023-10-20T17:57:28.475Z,5.97
2023-10-20T17:59:57.388Z,5.96
2023-10-20T18:02:26.403Z,5.97
2023-10-20T18:04:55.592Z,5.94
2023-10-20T18:07:24.392Z,5.96
2023-10-20T18:09:53.935Z,5.97
2023-10-20T18:12:23.159Z,5.97
2023-10-20T18:14:52.809Z,5.99
2023-10-20T18:17:23.368Z,5.98
2023-10-20T18:19:52.994Z,5.97
2023-10-20T18:22:21.633Z,5.99
2023-10-20T18:24:55.779Z,6.00
2023-10-20T18:27:24.685Z,6.01
2023-10-20T18:29:53.547Z,6.03
2023-10-20T18:32:22.673Z,6.04
2023-10-20T18:34:54.060Z,6.05
2023-10-20T18:37:23.801Z,6.06
2023-10-20T18:39:54.944Z,6.07
2023-10-20T18:42:24.311Z,6.08
2023-10-20T18:44:54.114Z,6.09
2023-10-20T18:47:23.029Z,6.10
2023-10-20T18:49:53.318Z,6.12
2023-10-20T18:52:22.843Z,6.14
2023-10-20T18:54:53.958Z,6.16
2023-10-20T18:57:22.650Z,6.17
2023-10-20T18:59:51.737Z,6.19
2023-10-20T19:02:20.833Z,6.19
2023-10-20T19:04:49.424Z,6.19
2023-10-20T19:07:18.589Z,6.20
2023-10-20T19:09:55.333Z,6.23
2023-10-20T19:12:24.454Z,6.25
2023-10-20T19:14:54.874Z,6.28
2023-10-20T19:17:24.365Z,6.30
2023-10-20T19:19:53.192Z,6.31
2023-10-20T19:22:21.960Z,6.32
2023-10-20T19:24:52.950Z,6.33
2023-10-20T19:27:21.772Z,6.35
2023-10-20T19:29:50.656Z,6.35
2023-10-20T19:32:19.388Z,6.35
2023-10-20T19:34:48.811Z,6.38
2023-10-20T19:37:17.676Z,6.40
2023-10-20T19:39:56.200Z,6.42
2023-10-20T19:42:25.522Z,6.43
2023-10-20T19:44:55.239Z,6.46
2023-10-20T19:47:25.966Z,6.48
2023-10-20T19:49:55.886Z,6.50
2023-10-20T19:52:24.805Z,6.53
2023-10-20T19:54:55.591Z,6.55
2023-10-20T19:57:24.562Z,6.57
2023-10-20T19:59:53.552Z,6.59
2023-10-20T20:02:22.848Z,6.62
2023-10-20T20:04:53.449Z,6.64
2023-10-20T20:07:23.796Z,6.65
2023-10-20T20:09:52.956Z,6.67
2023-10-20T20:12:22.184Z,6.69
2023-10-20T20:14:51.415Z,6.70
2023-10-20T20:17:20.650Z,6.73
2023-10-20T20:19:49.853Z,6.74
2023-10-20T20:22:19.915Z,6.74
2023-10-20T20:24:51.173Z,6.75
2023-10-20T20:27:20.072Z,6.76
2023-10-20T20:29:51.266Z,6.79
2023-10-20T20:32:20.255Z,6.81
2023-10-20T20:34:49.862Z,6.82
2023-10-20T20:37:19.809Z,6.85
2023-10-20T20:39:52.357Z,6.85
2023-10-20T20:42:21.138Z,6.85
2023-10-20T20:44:50.292Z,6.85
2023-10-20T20:47:19.115Z,6.87
2023-10-20T20:49:48.647Z,6.89
2023-10-20T20:52:17.936Z,6.91
2023-10-20T20:54:50.383Z,6.92
2023-10-20T20:57:19.613Z,6.93
2023-10-20T20:59:50.611Z,6.94
2023-10-20T21:02:19.595Z,6.97
2023-10-20T21:04:48.980Z,7.00
2023-10-20T21:07:17.930Z,7.02
2023-10-20T21:09:48.100Z,7.06
2023-10-20T21:12:19.113Z,7.07
2023-10-20T21:14:48.535Z,7.09
2023-10-20T21:17:17.504Z,7.12
2023-10-20T21:19:46.914Z,7.16
2023-10-20T21:22:16.347Z,7.17
2023-10-20T21:24:45.100Z,7.17
2023-10-20T21:27:22.973Z,7.19
2023-10-20T21:29:52.340Z,7.20
2023-10-20T21:32:21.893Z,7.20
2023-10-20T21:34:50.930Z,7.21
2023-10-20T21:37:19.662Z,7.22
2023-10-20T21:39:53.528Z,7.24
2023-10-20T21:42:22.354Z,7.28
2023-10-20T21:44:51.303Z,7.30
2023-10-20T21:47:22.016Z,7.33
2023-10-20T21:49:53.942Z,7.35
2023-10-20T21:52:22.771Z,7.37
2023-10-20T21:54:52.584Z,7.38
2023-10-20T21:57:21.371Z,7.39
2023-10-20T21:59:50.109Z,7.41
2023-10-20T22:02:19.837Z,7.43
2023-10-20T22:04:52.295Z,7.46
2023-10-20T22:07:21.138Z,7.49
2023-10-20T22:09:54.474Z,7.50
2023-10-20T22:12:23.700Z,7.51
2023-10-20T22:14:52.827Z,7.53
2023-10-20T22:17:21.808Z,7.56
2023-10-20T22:19:50.908Z,7.58
2023-10-20T22:22:19.911Z,7.59
2023-10-20T22:24:53.192Z,7.60
2023-10-20T22:27:21.915Z,7.64
2023-10-20T22:29:51.320Z,7.66
2023-10-20T22:32:20.180Z,7.69
2023-10-20T22:34:49.769Z,7.71
2023-10-20T22:37:18.524Z,7.72
2023-10-20T22:39:50.227Z,7.72
2023-10-20T22:42:19.741Z,7.72
2023-10-20T22:44:51.035Z,7.72
2023-10-20T22:47:20.083Z,7.73
2023-10-20T22:49:51.473Z,7.75
2023-10-20T22:52:20.505Z,7.76
2023-10-20T22:54:49.915Z,7.75
2023-10-20T22:57:22.102Z,7.76
2023-10-20T22:59:50.991Z,7.78
2023-10-20T23:02:19.809Z,7.80
2023-10-20T23:04:50.907Z,7.81
2023-10-20T23:07:19.554Z,7.84
2023-10-20T23:09:50.660Z,7.85
2023-10-20T23:12:19.565Z,7.86
2023-10-20T23:14:51.573Z,7.87
2023-10-20T23:17:20.520Z,7.90
2023-10-20T23:19:49.804Z,7.91
2023-10-20T23:22:18.310Z,7.92
2023-10-20T23:24:48.511Z,7.91
2023-10-20T23:27:17.555Z,7.92
2023-10-20T23:29:46.443Z,7.95
2023-10-20T23:32:16.065Z,7.98
2023-10-20T23:34:44.920Z,7.99
2023-10-20T23:37:14.213Z,8.02
2023-10-20T23:39:42.971Z,8.04
2023-10-20T23:42:14.571Z,8.05
2023-10-20T23:44:43.596Z,8.06
2023-10-20T23:47:12.528Z,8.08
2023-10-20T23:49:41.442Z,8.08
2023-10-20T23:52:10.440Z,8.09
2023-10-20T23:54:39.201Z,8.10
2023-10-20T23:57:08.152Z,8.11
2023-10-20T23:59:37.760Z,8.11
